createdAt,value
2022-08-03T00:00:24.376Z,26.53
2022-08-03T00:03:26.290Z,25.78
2022-08-03T00:06:28.226Z,25.99
2022-08-03T00:09:35.429Z,26.15
2022-08-03T00:12:37.726Z,26.21
2022-08-03T00:15:40.780Z,26.10
2022-08-03T00:18:42.666Z,25.16
2022-08-03T00:21:44.502Z,25.76
2022-08-03T00:24:46.376Z,25.75
2022-08-03T00:27:48.548Z,25.31
2022-08-03T00:30:53.110Z,24.61
2022-08-03T00:33:59.306Z,24.78
2022-08-03T00:37:01.872Z,24.17
2022-08-03T00:40:03.957Z,24.48
2022-08-03T00:43:08.865Z,24.77
2022-08-03T00:46:10.805Z,24.82
2022-08-03T00:49:12.692Z,24.48
2022-08-03T00:52:14.651Z,24.30
2022-08-03T00:55:16.458Z,24.36
2022-08-03T00:58:18.484Z,24.60
2022-08-03T01:01:20.476Z,24.60
2022-08-03T01:04:22.396Z,24.40
2022-08-03T01:07:24.323Z,24.10
2022-08-03T01:10:29.798Z,24.43
2022-08-03T01:14:03.973Z,24.43
2022-08-03T01:17:10.837Z,24.32
2022-08-03T01:20:13.778Z,24.03
2022-08-03T01:23:15.696Z,24.40
2022-08-03T01:26:25.269Z,24.48
2022-08-03T01:29:46.389Z,23.95
2022-08-03T01:33:01.016Z,24.31
2022-08-03T01:36:04.389Z,24.01
2022-08-03T01:39:09.588Z,23.85
2022-08-03T01:42:11.562Z,24.27
2022-08-03T01:45:14.100Z,23.93
2022-08-03T01:48:16.069Z,24.25
2022-08-03T01:51:18.649Z,24.91
2022-08-03T01:54:20.473Z,24.03
2022-08-03T01:57:22.413Z,24.63
2022-08-03T02:00:24.404Z,24.20
2022-08-03T02:03:26.389Z,24.04
2022-08-03T02:07:02.231Z,24.54
2022-08-03T02:09:52.017Z,24.42
2022-08-03T02:12:53.884Z,23.57
2022-08-03T02:15:55.706Z,23.63
2022-08-03T02:18:57.630Z,23.62
2022-08-03T02:22:01.038Z,23.78
2022-08-03T02:25:03.805Z,23.61
2022-08-03T02:28:10.964Z,23.76
2022-08-03T02:31:17.268Z,24.46
2022-08-03T02:34:19.090Z,24.16
2022-08-03T02:37:21.122Z,24.35
2022-08-03T02:40:23.129Z,24.65
2022-08-03T02:43:24.957Z,23.69
2022-08-03T02:46:28.804Z,23.03
2022-08-03T02:49:42.632Z,23.18
2022-08-03T02:52:53.302Z,22.92
2022-08-03T02:55:55.550Z,23.04
2022-08-03T02:58:57.422Z,23.02
2022-08-03T03:01:59.253Z,23.22
2022-08-03T03:05:53.360Z,23.49
2022-08-03T03:08:26.157Z,23.20
2022-08-03T03:11:30.480Z,22.85
2022-08-03T03:14:33.234Z,23.63
2022-08-03T03:17:36.169Z,24.17
2022-08-03T03:20:38.097Z,24.54
2022-08-03T03:23:41.324Z,23.84
2022-08-03T03:26:43.581Z,24.12
2022-08-03T03:29:45.515Z,23.29
2022-08-03T03:32:47.439Z,23.80
2022-08-03T03:35:49.442Z,24.14
2022-08-03T03:38:51.248Z,24.08
2022-08-03T03:41:55.675Z,22.96
2022-08-03T03:44:57.526Z,22.54
2022-08-03T03:48:01.716Z,22.66
2022-08-03T03:51:03.637Z,22.73
2022-08-03T03:54:08.566Z,23.00
2022-08-03T03:57:13.162Z,22.73
2022-08-03T04:00:16.774Z,23.74
2022-08-03T04:03:18.629Z,24.28
2022-08-03T04:06:38.910Z,23.51
2022-08-03T04:09:59.263Z,23.80
2022-08-03T04:13:11.188Z,23.13
2022-08-03T04:16:13.369Z,24.03
2022-08-03T04:19:23.077Z,24.13
2022-08-03T04:22:26.674Z,23.49
2022-08-03T04:25:30.807Z,23.22
2022-08-03T04:28:32.843Z,23.07
2022-08-03T04:31:34.766Z,23.26
2022-08-03T04:34:36.632Z,23.77
2022-08-03T04:37:39.572Z,23.97
2022-08-03T04:40:42.041Z,23.93
2022-08-03T04:43:43.916Z,24.77
2022-08-03T04:46:46.763Z,25.55
2022-08-03T04:49:54.399Z,24.91
2022-08-03T04:52:56.280Z,24.96
2022-08-03T04:56:04.093Z,25.59
2022-08-03T04:59:06.119Z,25.93
2022-08-03T05:02:08.174Z,26.62
2022-08-03T05:05:10.094Z,27.21
2022-08-03T05:08:12.899Z,26.63
2022-08-03T05:11:15.478Z,28.11
2022-08-03T05:14:17.322Z,27.72
2022-08-03T05:17:29.895Z,28.81
2022-08-03T05:20:32.020Z,29.46
2022-08-03T05:23:33.932Z,29.34
2022-08-03T05:26:35.890Z,28.63
2022-08-03T05:29:37.730Z,28.75
2022-08-03T05:32:39.639Z,28.53
2022-08-03T05:35:56.811Z,28.93
2022-08-03T05:39:03.901Z,29.53
2022-08-03T05:42:05.957Z,30.63
2022-08-03T05:45:15.665Z,30.40
2022-08-03T05:48:17.558Z,30.93
2022-08-03T05:51:19.626Z,30.07
2022-08-03T05:54:21.890Z,29.72
2022-08-03T05:57:44.293Z,29.36
2022-08-03T06:00:46.793Z,29.64
2022-08-03T06:03:49.385Z,30.02
2022-08-03T06:06:51.463Z,30.78
2022-08-03T06:10:34.149Z,30.43
2022-08-03T06:13:16.769Z,30.02
2022-08-03T06:16:18.605Z,30.44
2022-08-03T06:19:20.692Z,31.81
2022-08-03T06:22:22.702Z,31.38
2022-08-03T06:25:29.185Z,29.59
2022-08-03T06:28:52.548Z,30.93
2022-08-03T06:31:53.254Z,31.68
2022-08-03T06:34:55.341Z,32.36
2022-08-03T06:37:57.308Z,32.66
2022-08-03T06:40:59.173Z,33.09
2022-08-03T06:44:03.079Z,33.07
2022-08-03T06:47:06.327Z,32.22
2022-08-03T06:50:16.345Z,32.06
2022-08-03T06:53:19.868Z,34.45
2022-08-03T06:56:23.418Z,33.39
2022-08-03T07:00:07.338Z,33.21
2022-08-03T07:02:47.235Z,32.74
2022-08-03T07:05:50.074Z,34.57
2022-08-03T07:08:55.462Z,31.51
2022-08-03T07:11:59.657Z,32.42
2022-08-03T07:15:04.104Z,33.91
2022-08-03T07:18:06.690Z,33.32
2022-08-03T07:21:10.968Z,35.80
2022-08-03T07:24:12.915Z,32.76
2022-08-03T07:27:15.898Z,35.82
2022-08-03T07:30:17.767Z,36.19
2022-08-03T07:33:20.187Z,34.33
2022-08-03T07:36:22.528Z,34.83
2022-08-03T07:39:24.390Z,37.21
2022-08-03T07:42:29.201Z,34.42
2022-08-03T07:45:32.327Z,36.71
2022-08-03T07:48:34.290Z,34.88
2022-08-03T07:51:36.241Z,35.59
2022-08-03T07:54:38.133Z,36.62
2022-08-03T07:57:40.058Z,38.08
2022-08-03T08:00:42.229Z,36.34
2022-08-03T08:03:52.622Z,35.13
2022-08-03T08:06:55.127Z,33.93
2022-08-03T08:09:57.099Z,34.24
2022-08-03T08:12:59.341Z,34.14
2022-08-03T08:16:01.434Z,36.27
2022-08-03T08:19:03.567Z,33.49
2022-08-03T08:22:06.788Z,35.65
2022-08-03T08:25:09.018Z,37.70
2022-08-03T08:28:29.417Z,35.15
2022-08-03T08:31:32.681Z,35.47
2022-08-03T08:34:34.628Z,35.31
2022-08-03T08:37:36.824Z,35.86
2022-08-03T08:40:38.932Z,36.80
2022-08-03T08:43:40.866Z,35.58
2022-08-03T08:46:42.865Z,37.89
2022-08-03T08:50:03.841Z,38.06
2022-08-03T08:53:09.724Z,37.20
2022-08-03T08:56:15.573Z,34.99
2022-08-03T08:59:17.689Z,37.43
2022-08-03T09:02:20.110Z,37.48
2022-08-03T09:05:35.784Z,38.54
2022-08-03T09:08:43.950Z,36.32
2022-08-03T09:12:00.393Z,37.17
2022-08-03T09:15:19.034Z,36.79
2022-08-03T09:18:30.578Z,38.17
2022-08-03T09:21:35.098Z,37.85
2022-08-03T09:24:41.613Z,38.31
2022-08-03T09:27:44.799Z,38.20
2022-08-03T09:30:58.354Z,37.65
2022-08-03T09:34:07.316Z,36.38
2022-08-03T09:37:13.432Z,38.65
2022-08-03T09:40:15.433Z,38.73
2022-08-03T09:43:17.668Z,37.82
2022-08-03T09:46:19.713Z,38.30
2022-08-03T09:49:21.799Z,38.25
2022-08-03T09:52:33.873Z,39.19
2022-08-03T09:56:33.042Z,38.13
2022-08-03T09:59:12.916Z,41.69
2022-08-03T10:02:25.343Z,40.71
2022-08-03T10:05:32.411Z,38.56
2022-08-03T10:08:34.448Z,38.07
2022-08-03T10:11:41.385Z,39.25
2022-08-03T10:14:45.830Z,38.56
2022-08-03T10:17:47.693Z,38.12
2022-08-03T10:20:50.430Z,39.04
2022-08-03T10:23:53.828Z,40.54
2022-08-03T10:26:59.264Z,40.53
2022-08-03T10:30:04.590Z,38.18
2022-08-03T10:33:15.649Z,41.82
2022-08-03T10:36:30.902Z,43.47
2022-08-03T10:39:34.693Z,41.27
2022-08-03T10:42:36.728Z,41.37
2022-08-03T10:45:41.397Z,36.85
2022-08-03T10:48:43.537Z,36.15
2022-08-03T10:51:45.737Z,37.68
2022-08-03T10:55:07.514Z,38.61
2022-08-03T10:58:12.604Z,37.75
2022-08-03T11:01:15.034Z,36.65
2022-08-03T11:04:17.778Z,37.77
2022-08-03T11:07:23.937Z,40.52
2022-08-03T11:10:32.221Z,40.11
2022-08-03T11:13:34.295Z,39.53
2022-08-03T11:16:37.928Z,37.98
2022-08-03T11:19:57.637Z,37.79
2022-08-03T11:23:01.767Z,35.14
2022-08-03T11:26:19.605Z,34.59
2022-08-03T11:29:31.280Z,34.83
2022-08-03T11:32:48.125Z,35.28
2022-08-03T11:36:01.173Z,35.03
2022-08-03T11:39:17.078Z,36.05
2022-08-03T11:42:22.148Z,35.97
2022-08-03T11:45:24.264Z,37.56
2022-08-03T11:48:29.384Z,37.05
2022-08-03T11:51:32.258Z,37.94
2022-08-03T11:54:34.279Z,40.80
2022-08-03T11:59:17.367Z,40.37
2022-08-03T12:01:05.321Z,42.10
2022-08-03T12:04:07.347Z,43.48
2022-08-03T12:07:09.334Z,41.05
2022-08-03T12:10:12.455Z,42.66
2022-08-03T12:14:44.982Z,46.73
2022-08-03T12:16:36.464Z,43.26
2022-08-03T12:19:42.217Z,45.16
2022-08-03T12:22:44.460Z,46.11
2022-08-03T12:25:46.875Z,42.68
2022-08-03T12:28:49.991Z,39.60
2022-08-03T12:31:53.035Z,40.94
2022-08-03T12:34:55.628Z,43.26
2022-08-03T12:37:58.464Z,39.61
2022-08-03T12:41:01.324Z,39.28
2022-08-03T12:44:04.097Z,37.49
2022-08-03T12:47:06.935Z,37.19
2022-08-03T12:50:09.020Z,35.21
2022-08-03T12:53:12.276Z,35.57
2022-08-03T12:56:14.501Z,36.83
2022-08-03T12:59:32.177Z,35.87
2022-08-03T13:02:36.732Z,35.81
2022-08-03T13:05:45.433Z,34.48
2022-08-03T13:08:48.268Z,34.66
2022-08-03T13:12:04.448Z,34.60
2022-08-03T13:15:10.214Z,35.13
2022-08-03T13:18:12.273Z,34.44
2022-08-03T13:21:19.556Z,35.74
2022-08-03T13:24:21.906Z,34.20
2022-08-03T13:28:03.533Z,33.63
2022-08-03T13:30:46.404Z,33.81
2022-08-03T13:33:48.367Z,34.29
2022-08-03T13:37:08.400Z,34.93
2022-08-03T13:40:11.642Z,35.42
2022-08-03T13:43:13.696Z,35.33
2022-08-03T13:46:15.684Z,35.30
2022-08-03T13:49:18.264Z,35.75
2022-08-03T13:52:20.721Z,34.93
2022-08-03T13:55:22.858Z,35.46
2022-08-03T13:58:24.733Z,33.75
2022-08-03T14:01:54.000Z,34.84
2022-08-03T14:04:48.619Z,34.78
2022-08-03T14:07:50.784Z,35.90
2022-08-03T14:10:55.299Z,35.16
2022-08-03T14:13:57.235Z,34.76
2022-08-03T14:16:59.137Z,35.51
2022-08-03T14:20:01.064Z,34.53
2022-08-03T14:23:04.421Z,35.29
2022-08-03T14:26:06.787Z,34.73
2022-08-03T14:29:08.678Z,35.46
2022-08-03T14:32:13.479Z,35.61
2022-08-03T14:35:15.753Z,35.01
2022-08-03T14:38:17.756Z,35.05
2022-08-03T14:41:19.748Z,36.05
2022-08-03T14:44:22.296Z,36.06
2022-08-03T14:47:24.384Z,35.67
2022-08-03T14:50:40.561Z,34.71
2022-08-03T14:53:46.647Z,34.01
2022-08-03T14:56:49.122Z,33.71
2022-08-03T14:59:56.081Z,34.92
2022-08-03T15:02:59.371Z,35.01
2022-08-03T15:06:01.502Z,35.14
2022-08-03T15:09:21.353Z,35.25
2022-08-03T15:12:25.630Z,35.00
2022-08-03T15:15:27.753Z,34.61
2022-08-03T15:18:29.811Z,35.61
2022-08-03T15:21:46.597Z,34.65
2022-08-03T15:24:50.200Z,35.48
2022-08-03T15:28:04.155Z,35.50
2022-08-03T15:31:06.876Z,35.07
2022-08-03T15:34:08.833Z,35.50
2022-08-03T15:37:12.771Z,35.38
2022-08-03T15:40:18.441Z,34.38
2022-08-03T15:43:23.930Z,34.26
2022-08-03T15:46:29.960Z,34.50
2022-08-03T15:49:33.160Z,33.66
2022-08-03T15:52:36.542Z,34.65
2022-08-03T15:55:38.451Z,34.70
2022-08-03T15:59:03.203Z,34.05
2022-08-03T16:02:02.869Z,34.01
2022-08-03T16:05:05.770Z,35.22
2022-08-03T16:08:13.181Z,35.24
2022-08-03T16:11:16.015Z,34.95
2022-08-03T16:14:32.548Z,34.08
2022-08-03T16:17:38.327Z,34.46
2022-08-03T16:20:40.364Z,34.54
2022-08-03T16:23:47.252Z,34.18
2022-08-03T16:26:49.704Z,34.64
2022-08-03T16:29:51.559Z,34.45
2022-08-03T16:32:53.537Z,34.29
2022-08-03T16:35:55.374Z,34.32
2022-08-03T16:38:57.459Z,34.65
2022-08-03T16:42:01.119Z,34.23
2022-08-03T16:45:07.075Z,34.70
2022-08-03T16:48:09.018Z,34.03
2022-08-03T16:51:10.903Z,33.45
2022-08-03T16:54:14.172Z,33.50
2022-08-03T16:57:16.180Z,33.51
2022-08-03T17:00:34.451Z,33.77
2022-08-03T17:03:42.589Z,33.13
2022-08-03T17:07:00.448Z,34.36
2022-08-03T17:10:02.474Z,33.49
2022-08-03T17:13:04.741Z,32.97
2022-08-03T17:16:07.976Z,33.27
2022-08-03T17:19:09.912Z,33.40
2022-08-03T17:22:12.761Z,33.20
2022-08-03T17:25:22.032Z,32.99
2022-08-03T17:28:50.494Z,33.09
2022-08-03T17:31:55.167Z,32.68
2022-08-03T17:34:57.389Z,32.43
2022-08-03T17:38:03.458Z,32.39
2022-08-03T17:41:10.935Z,31.93
2022-08-03T17:44:37.625Z,32.02
2022-08-03T17:47:42.477Z,32.45
2022-08-03T17:51:05.730Z,32.56
2022-08-03T17:54:18.066Z,32.51
2022-08-03T17:58:01.441Z,32.16
2022-08-03T18:02:00.694Z,32.40
2022-08-03T18:04:40.485Z,32.16
2022-08-03T18:07:47.876Z,32.41
2022-08-03T18:10:50.293Z,32.66
2022-08-03T18:13:59.818Z,32.72
2022-08-03T18:17:02.659Z,32.86
2022-08-03T18:20:09.878Z,32.61
2022-08-03T18:23:25.211Z,32.90
2022-08-03T18:26:37.489Z,32.92
2022-08-03T18:29:39.972Z,32.24
2022-08-03T18:32:42.538Z,32.70
2022-08-03T18:36:03.383Z,32.63
2022-08-03T18:39:06.776Z,32.22
2022-08-03T18:42:08.927Z,31.76
2022-08-03T18:45:57.123Z,32.05
2022-08-03T18:48:49.312Z,32.61
2022-08-03T18:55:21.061Z,32.27
2022-08-03T18:58:40.789Z,32.28
2022-08-03T19:02:00.449Z,32.20
2022-08-03T19:05:07.725Z,32.08
2022-08-03T19:08:16.930Z,32.19
2022-08-03T19:11:28.108Z,32.07
2022-08-03T19:14:31.429Z,32.04
2022-08-03T19:17:35.032Z,31.84
2022-08-03T19:20:37.569Z,32.05
2022-08-03T19:23:39.846Z,31.78
2022-08-03T19:26:42.743Z,31.41
2022-08-03T19:29:58.608Z,31.58
2022-08-03T19:33:03.007Z,31.51
2022-08-03T19:36:10.467Z,30.51
2022-08-03T19:39:14.203Z,31.06
2022-08-03T19:42:22.905Z,31.03
2022-08-03T19:46:04.403Z,31.35
2022-08-03T19:49:02.157Z,30.72
2022-08-03T19:52:07.387Z,30.57
2022-08-03T19:55:12.455Z,30.79
2022-08-03T19:58:17.542Z,31.35
2022-08-03T20:01:26.347Z,31.13
2022-08-03T20:04:30.666Z,30.61
2022-08-03T20:07:32.940Z,30.19
2022-08-03T20:10:34.947Z,30.36
2022-08-03T20:13:39.108Z,31.01
2022-08-03T20:16:42.906Z,31.12
2022-08-03T20:19:44.927Z,30.85
2022-08-03T20:22:48.211Z,29.94
2022-08-03T20:26:00.544Z,30.28
2022-08-03T20:29:09.976Z,30.19
2022-08-03T20:32:12.427Z,29.65
2022-08-03T20:35:14.349Z,30.15
2022-08-03T20:38:16.933Z,30.37
2022-08-03T20:41:20.661Z,30.67
2022-08-03T20:44:25.835Z,30.67
2022-08-03T20:47:27.968Z,30.46
2022-08-03T20:50:32.661Z,30.42
2022-08-03T20:53:56.945Z,30.04
2022-08-03T20:56:56.833Z,29.61
2022-08-03T20:59:58.815Z,29.31
2022-08-03T21:03:01.364Z,28.98
2022-08-03T21:06:06.893Z,28.90
2022-08-03T21:09:09.771Z,29.12
2022-08-03T21:12:15.438Z,29.19
2022-08-03T21:13:09.086Z,32.62
2022-08-03T21:16:06.547Z,29.34
2022-08-03T21:18:55.010Z,29.48
2022-08-03T21:21:57.080Z,28.75
2022-08-03T21:24:59.084Z,28.77
2022-08-03T21:28:01.547Z,28.74
2022-08-03T21:31:03.416Z,29.02
2022-08-03T21:34:05.390Z,28.63
2022-08-03T21:37:07.248Z,28.88
2022-08-03T21:40:12.029Z,28.98
2022-08-03T21:43:13.989Z,28.86
2022-08-03T21:46:15.828Z,28.05
2022-08-03T21:50:07.971Z,27.92
2022-08-03T21:52:43.301Z,27.80
2022-08-03T21:55:46.962Z,28.68
2022-08-03T21:58:52.038Z,29.09
2022-08-03T22:01:55.422Z,29.25
2022-08-03T22:05:00.477Z,28.20
2022-08-03T22:08:07.751Z,28.07
2022-08-03T22:11:09.896Z,28.70
2022-08-03T22:14:11.781Z,28.97
2022-08-03T22:17:13.944Z,29.09
2022-08-03T22:20:35.804Z,28.97
2022-08-03T22:23:40.877Z,28.60
2022-08-03T22:27:02.720Z,28.09
2022-08-03T22:30:05.991Z,28.45
2022-08-03T22:33:11.719Z,28.00
2022-08-03T22:36:14.006Z,27.58
2022-08-03T22:39:25.708Z,27.18
2022-08-03T22:42:28.233Z,27.93
2022-08-03T22:46:06.446Z,28.46
2022-08-03T22:48:52.135Z,28.00
2022-08-03T22:51:54.228Z,27.83
2022-08-03T22:54:56.195Z,27.30
2022-08-03T22:58:01.656Z,27.95
2022-08-03T23:01:05.015Z,27.82
2022-08-03T23:04:07.128Z,26.89
2022-08-03T23:07:11.736Z,27.69
2022-08-03T23:10:14.209Z,27.27
2022-08-03T23:13:19.558Z,26.40
2022-08-03T23:16:28.724Z,26.26
2022-08-03T23:19:34.356Z,26.35
2022-08-03T23:22:43.739Z,27.43
2022-08-03T23:25:50.109Z,27.28
2022-08-03T23:28:52.099Z,25.90
2022-08-03T23:31:54.519Z,26.97
2022-08-03T23:35:15.625Z,26.45
2022-08-03T23:38:22.886Z,26.53
2022-08-03T23:41:25.118Z,26.08
2022-08-03T23:44:27.364Z,26.17
2022-08-03T23:47:45.960Z,25.95
2022-08-03T23:50:50.382Z,25.90
2022-08-03T23:53:57.632Z,25.99
2022-08-03T23:57:24.145Z,26.64
